Time;durP1;ratioP1;P1;durP2;ratioP2;P2;SDS_P1;SDS_P2;PMS_P1;PMS_P2;Temp;Humidity;BMP_temperature;BMP_pressure;BME280_temperature;BME280_humidity;BME280_pressure;Samples;Min_cycle;Max_cycle;Signal;HPM_P1;HPM_P2
2022/01/07 00:00:39;;;;;;;7.65;4.550001;;;;;;;-2.91;100;95486.16;;;;
2022/01/07 00:01:40;;;;;;;7.65;4.550001;;;;;;;-2.91;100;95486.16;;;;
2022/01/07 00:02:40;;;;;;;7.65;4.550001;;;;;;;-2.91;100;95486.16;;;;
2022/01/07 00:03:41;;;;;;;7.65;4.550001;;;;;;;-2.91;100;95486.16;;;;
2022/01/07 00:04:41;;;;;;;7.65;4.550001;;;;;;;-2.91;100;95486.16;;;;
2022/01/07 00:05:42;;;;;;;7.65;4.550001;;;;;;;-2.91;100;95486.16;;;;
2022/01/07 00:06:42;;;;;;;7.65;4.550001;;;;;;;-2.91;100;95486.16;;;;
2022/01/07 00:07:43;;;;;;;7.65;4.550001;;;;;;;-2.91;100;95486.16;;;;
2022/01/07 00:08:44;;;;;;;7.65;4.550001;;;;;;;-2.91;100;95486.16;;;;
2022/01/07 00:09:45;;;;;;;7.649999;4.7;;;;;;;-2.96;100;95494.18;;;;
2022/01/07 00:10:46;;;;;;;7.649999;4.7;;;;;;;-2.96;100;95494.18;;;;
2022/01/07 00:11:46;;;;;;;7.649999;4.7;;;;;;;-2.96;100;95494.18;;;;
2022/01/07 00:12:47;;;;;;;7.649999;4.7;;;;;;;-2.96;100;95494.18;;;;
2022/01/07 00:13:49;;;;;;;7.649999;4.7;;;;;;;-2.96;100;95494.18;;;;
2022/01/07 00:14:49;;;;;;;7.649999;4.7;;;;;;;-2.96;100;95494.18;;;;
2022/01/07 00:15:50;;;;;;;7.649999;4.7;;;;;;;-2.96;100;95494.18;;;;
2022/01/07 00:16:51;;;;;;;7.649999;4.7;;;;;;;-2.96;100;95494.18;;;;
2022/01/07 00:17:51;;;;;;;7.649999;4.7;;;;;;;-2.96;100;95494.18;;;;
2022/01/07 00:18:52;;;;;;;7.649999;4.7;;;;;;;-2.96;100;95494.18;;;;
2022/01/07 00:19:53;;;;;;;7.649999;4.7;;;;;;;-2.96;100;95494.18;;;;
2022/01/07 00:20:53;;;;;;;8.35;4.600001;;;;;;;-2.97;100;95493.85;;;;
2022/01/07 00:21:54;;;;;;;8.35;4.600001;;;;;;;-2.97;100;95493.85;;;;
2022/01/07 00:22:55;;;;;;;8.35;4.600001;;;;;;;-2.97;100;95493.85;;;;
2022/01/07 00:23:56;;;;;;;8.35;4.600001;;;;;;;-2.97;100;95493.85;;;;
2022/01/07 00:24:56;;;;;;;8.35;4.600001;;;;;;;-2.97;100;95493.85;;;;
2022/01/07 00:25:57;;;;;;;8.35;4.600001;;;;;;;-2.97;100;95493.85;;;;
2022/01/07 00:26:57;;;;;;;8.35;4.600001;;;;;;;-2.97;100;95493.85;;;;
2022/01/07 00:27:58;;;;;;;8.35;4.600001;;;;;;;-2.97;100;95493.85;;;;
2022/01/07 00:28:58;;;;;;;8.35;4.600001;;;;;;;-2.97;100;95493.85;;;;
2022/01/07 00:29:59;;;;;;;8.35;4.600001;;;;;;;-2.97;100;95493.85;;;;
2022/01/07 00:30:59;;;;;;;8.35;4.600001;;;;;;;-2.97;100;95493.85;;;;
2022/01/07 00:32:00;;;;;;;8.35;4.600001;;;;;;;-2.97;100;95493.85;;;;
2022/01/07 00:33:01;;;;;;;8.35;4.600001;;;;;;;-2.97;100;95493.85;;;;
2022/01/07 00:34:01;;;;;;;8.35;4.600001;;;;;;;-2.97;100;95493.85;;;;
2022/01/07 00:35:02;;;;;;;8.35;4.600001;;;;;;;-2.97;100;95493.85;;;;
2022/01/07 00:36:04;;;;;;;8.35;4.600001;;;;;;;-2.97;100;95493.85;;;;
2022/01/07 00:37:05;;;;;;;8.35;4.600001;;;;;;;-2.97;100;95493.85;;;;
2022/01/07 00:38:06;;;;;;;8.35;4.600001;;;;;;;-2.97;100;95493.85;;;;
2022/01/07 00:39:06;;;;;;;8.35;4.600001;;;;;;;-2.97;100;95493.85;;;;
2022/01/07 00:40:07;;;;;;;8.35;4.600001;;;;;;;-2.97;100;95493.85;;;;
2022/01/07 00:41:10;;;;;;;8.35;4.600001;;;;;;;-2.97;100;95493.85;;;;
2022/01/07 00:42:11;;;;;;;6.900001;3.9;;;;;;;-3.02;100;95486.88;;;;
2022/01/07 00:43:12;;;;;;;6.900001;3.9;;;;;;;-3.02;100;95486.88;;;;
2022/01/07 00:44:12;;;;;;;6.900001;3.9;;;;;;;-3.02;100;95486.88;;;;
2022/01/07 00:45:13;;;;;;;6.900001;3.9;;;;;;;-3.02;100;95486.88;;;;
2022/01/07 00:46:13;;;;;;;6.900001;3.9;;;;;;;-3.02;100;95486.88;;;;
2022/01/07 00:47:14;;;;;;;6.900001;3.9;;;;;;;-3.02;100;95486.88;;;;
2022/01/07 00:48:14;;;;;;;6.900001;3.9;;;;;;;-3.02;100;95486.88;;;;
2022/01/07 00:49:21;;;;;;;6.900001;3.9;;;;;;;-3.02;100;95486.88;;;;
2022/01/07 00:50:21;;;;;;;6.900001;3.9;;;;;;;-3.02;100;95486.88;;;;
2022/01/07 00:51:24;;;;;;;6.900001;3.9;;;;;;;-3.02;100;95486.88;;;;
2022/01/07 00:52:24;;;;;;;6.900001;3.9;;;;;;;-3.02;100;95486.88;;;;
2022/01/07 00:53:25;;;;;;;6.900001;3.9;;;;;;;-3.02;100;95486.88;;;;
2022/01/07 00:54:25;;;;;;;6.900001;3.9;;;;;;;-3.02;100;95486.88;;;;
2022/01/07 00:55:26;;;;;;;6.900001;3.9;;;;;;;-3.02;100;95486.88;;;;
2022/01/07 00:56:27;;;;;;;6.900001;3.9;;;;;;;-3.02;100;95486.88;;;;
2022/01/07 00:57:27;;;;;;;6.900001;3.9;;;;;;;-3.02;100;95486.88;;;;
2022/01/07 00:58:28;;;;;;;6.900001;3.9;;;;;;;-3.02;100;95486.88;;;;
2022/01/07 00:59:29;;;;;;;6.900001;3.9;;;;;;;-3.02;100;95486.88;;;;
2022/01/07 01:00:29;;;;;;;6.900001;3.9;;;;;;;-3.02;100;95486.88;;;;
2022/01/07 01:01:30;;;;;;;6.900001;3.9;;;;;;;-3.02;100;95486.88;;;;
2022/01/07 01:02:30;;;;;;;6.900001;3.9;;;;;;;-3.02;100;95486.88;;;;
2022/01/07 01:03:31;;;;;;;6.95;3.55;;;;;;;-3.3;100;95444.65;;;;
2022/01/07 01:04:31;;;;;;;6.95;3.55;;;;;;;-3.3;100;95444.65;;;;
2022/01/07 01:05:32;;;;;;;6.95;3.55;;;;;;;-3.3;100;95444.65;;;;
2022/01/07 01:06:33;;;;;;;6.95;3.55;;;;;;;-3.3;100;95444.65;;;;
2022/01/07 01:07:34;;;;;;;6.95;3.55;;;;;;;-3.3;100;95444.65;;;;
2022/01/07 01:08:34;;;;;;;6.95;3.55;;;;;;;-3.3;100;95444.65;;;;
2022/01/07 01:09:35;;;;;;;6.95;3.55;;;;;;;-3.3;100;95444.65;;;;
2022/01/07 01:10:36;;;;;;;6.95;3.55;;;;;;;-3.3;100;95444.65;;;;
2022/01/07 01:11:36;;;;;;;6.95;3.55;;;;;;;-3.3;100;95444.65;;;;
2022/01/07 01:12:37;;;;;;;6.95;3.55;;;;;;;-3.3;100;95444.65;;;;
2022/01/07 01:13:40;;;;;;;5.450001;3.8;;;;;;;-3.49;100;95443.42;;;;
2022/01/07 01:14:41;;;;;;;5.450001;3.8;;;;;;;-3.49;100;95443.42;;;;
2022/01/07 01:15:42;;;;;;;5.450001;3.8;;;;;;;-3.49;100;95443.42;;;;
2022/01/07 01:16:44;;;;;;;5.450001;3.8;;;;;;;-3.49;100;95443.42;;;;
2022/01/07 01:17:44;;;;;;;5.450001;3.8;;;;;;;-3.49;100;95443.42;;;;
2022/01/07 01:18:45;;;;;;;5.450001;3.8;;;;;;;-3.49;100;95443.42;;;;
2022/01/07 01:19:45;;;;;;;5.450001;3.8;;;;;;;-3.49;100;95443.42;;;;
2022/01/07 01:20:46;;;;;;;5.450001;3.8;;;;;;;-3.49;100;95443.42;;;;
2022/01/07 01:21:46;;;;;;;5.450001;3.8;;;;;;;-3.49;100;95443.42;;;;
2022/01/07 01:22:47;;;;;;;5.450001;3.8;;;;;;;-3.49;100;95443.42;;;;
2022/01/07 01:23:50;;;;;;;5.450001;3.8;;;;;;;-3.49;100;95443.42;;;;
2022/01/07 01:24:51;;;;;;;6.95;3.8;;;;;;;-3.66;100;95441.58;;;;
2022/01/07 01:25:51;;;;;;;6.95;3.8;;;;;;;-3.66;100;95441.58;;;;
2022/01/07 01:26:52;;;;;;;6.95;3.8;;;;;;;-3.66;100;95441.58;;;;
2022/01/07 01:27:52;;;;;;;6.95;3.8;;;;;;;-3.66;100;95441.58;;;;
2022/01/07 01:28:53;;;;;;;6.95;3.8;;;;;;;-3.66;100;95441.58;;;;
2022/01/07 01:29:53;;;;;;;6.95;3.8;;;;;;;-3.66;100;95441.58;;;;
2022/01/07 01:30:54;;;;;;;6.95;3.8;;;;;;;-3.66;100;95441.58;;;;
2022/01/07 01:31:54;;;;;;;6.95;3.8;;;;;;;-3.66;100;95441.58;;;;
2022/01/07 01:32:55;;;;;;;6.95;3.8;;;;;;;-3.66;100;95441.58;;;;
2022/01/07 01:33:55;;;;;;;6.95;3.8;;;;;;;-3.66;100;95441.58;;;;
2022/01/07 01:34:56;;;;;;;6.849999;3.85;;;;;;;-3.81;100;95428.94;;;;
2022/01/07 01:35:57;;;;;;;6.849999;3.85;;;;;;;-3.81;100;95428.94;;;;
2022/01/07 01:36:57;;;;;;;6.849999;3.85;;;;;;;-3.81;100;95428.94;;;;
2022/01/07 01:37:58;;;;;;;6.849999;3.85;;;;;;;-3.81;100;95428.94;;;;
2022/01/07 01:38:59;;;;;;;6.849999;3.85;;;;;;;-3.81;100;95428.94;;;;
2022/01/07 01:39:59;;;;;;;6.849999;3.85;;;;;;;-3.81;100;95428.94;;;;
2022/01/07 01:41:01;;;;;;;6.849999;3.85;;;;;;;-3.81;100;95428.94;;;;
2022/01/07 01:42:01;;;;;;;6.849999;3.85;;;;;;;-3.81;100;95428.94;;;;
2022/01/07 01:43:02;;;;;;;6.849999;3.85;;;;;;;-3.81;100;95428.94;;;;
2022/01/07 01:44:03;;;;;;;6.849999;3.85;;;;;;;-3.81;100;95428.94;;;;
2022/01/07 01:45:04;;;;;;;6.849999;3.85;;;;;;;-3.81;100;95428.94;;;;
2022/01/07 01:46:06;;;;;;;6.4;4;;;;;;;-3.91;100;95419.84;;;;
2022/01/07 01:47:07;;;;;;;6.4;4;;;;;;;-3.91;100;95419.84;;;;
2022/01/07 01:48:08;;;;;;;6.4;4;;;;;;;-3.91;100;95419.84;;;;
2022/01/07 01:49:08;;;;;;;6.4;4;;;;;;;-3.91;100;95419.84;;;;
2022/01/07 01:50:09;;;;;;;6.4;4;;;;;;;-3.91;100;95419.84;;;;
2022/01/07 01:51:11;;;;;;;6.4;4;;;;;;;-3.91;100;95419.84;;;;
2022/01/07 01:52:12;;;;;;;6.4;4;;;;;;;-3.91;100;95419.84;;;;
2022/01/07 01:53:13;;;;;;;6.4;4;;;;;;;-3.91;100;95419.84;;;;
2022/01/07 01:54:14;;;;;;;6.4;4;;;;;;;-3.91;100;95419.84;;;;
2022/01/07 01:55:15;;;;;;;6.4;4;;;;;;;-3.91;100;95419.84;;;;
2022/01/07 01:56:17;;;;;;;5;3.2;;;;;;;-3.97;100;95403.75;;;;
2022/01/07 01:57:18;;;;;;;5;3.2;;;;;;;-3.97;100;95403.75;;;;
2022/01/07 01:58:18;;;;;;;5;3.2;;;;;;;-3.97;100;95403.75;;;;
2022/01/07 01:59:19;;;;;;;5;3.2;;;;;;;-3.97;100;95403.75;;;;
2022/01/07 02:00:24;;;;;;;5;3.2;;;;;;;-3.97;100;95403.75;;;;
2022/01/07 02:01:26;;;;;;;5;3.2;;;;;;;-3.97;100;95403.75;;;;
2022/01/07 02:02:27;;;;;;;5;3.2;;;;;;;-3.97;100;95403.75;;;;
2022/01/07 02:03:27;;;;;;;5;3.2;;;;;;;-3.97;100;95403.75;;;;
2022/01/07 02:04:29;;;;;;;5;3.2;;;;;;;-3.97;100;95403.75;;;;
2022/01/07 02:05:30;;;;;;;5;3.2;;;;;;;-3.97;100;95403.75;;;;
2022/01/07 02:06:31;;;;;;;5;3.2;;;;;;;-3.97;100;95403.75;;;;
2022/01/07 02:07:31;;;;;;;5.000001;2.8;;;;;;;-4.01;100;95397.55;;;;
2022/01/07 02:08:35;;;;;;;5.000001;2.8;;;;;;;-4.01;100;95397.55;;;;
2022/01/07 02:09:37;;;;;;;5.000001;2.8;;;;;;;-4.01;100;95397.55;;;;
2022/01/07 02:10:37;;;;;;;5.000001;2.8;;;;;;;-4.01;100;95397.55;;;;
2022/01/07 02:11:38;;;;;;;5.000001;2.8;;;;;;;-4.01;100;95397.55;;;;
2022/01/07 02:12:39;;;;;;;5.000001;2.8;;;;;;;-4.01;100;95397.55;;;;
2022/01/07 02:13:41;;;;;;;5.000001;2.8;;;;;;;-4.01;100;95397.55;;;;
2022/01/07 02:14:42;;;;;;;5.000001;2.8;;;;;;;-4.01;100;95397.55;;;;
2022/01/07 02:15:51;;;;;;;5.000001;2.8;;;;;;;-4.01;100;95397.55;;;;
2022/01/07 02:16:51;;;;;;;5.000001;2.8;;;;;;;-4.01;100;95397.55;;;;
2022/01/07 02:17:53;;;;;;;4.349999;2.55;;;;;;;-3.93;100;95390.56;;;;
2022/01/07 02:18:54;;;;;;;4.349999;2.55;;;;;;;-3.93;100;95390.56;;;;
2022/01/07 02:19:55;;;;;;;4.349999;2.55;;;;;;;-3.93;100;95390.56;;;;
2022/01/07 02:20:56;;;;;;;4.349999;2.55;;;;;;;-3.93;100;95390.56;;;;
2022/01/07 02:21:56;;;;;;;4.349999;2.55;;;;;;;-3.93;100;95390.56;;;;
2022/01/07 02:22:57;;;;;;;4.349999;2.55;;;;;;;-3.93;100;95390.56;;;;
2022/01/07 02:23:58;;;;;;;4.349999;2.55;;;;;;;-3.93;100;95390.56;;;;
2022/01/07 02:24:59;;;;;;;4.349999;2.55;;;;;;;-3.93;100;95390.56;;;;
2022/01/07 02:26:00;;;;;;;4.349999;2.55;;;;;;;-3.93;100;95390.56;;;;
2022/01/07 02:27:00;;;;;;;4.349999;2.55;;;;;;;-3.93;100;95390.56;;;;
2022/01/07 02:28:03;;;;;;;4.65;2.75;;;;;;;-3.98;100;95392.81;;;;
2022/01/07 02:29:05;;;;;;;4.65;2.75;;;;;;;-3.98;100;95392.81;;;;
2022/01/07 02:30:06;;;;;;;4.65;2.75;;;;;;;-3.98;100;95392.81;;;;
2022/01/07 02:31:14;;;;;;;4.65;2.75;;;;;;;-3.98;100;95392.81;;;;
2022/01/07 02:32:14;;;;;;;4.65;2.75;;;;;;;-3.98;100;95392.81;;;;
2022/01/07 02:33:15;;;;;;;4.65;2.75;;;;;;;-3.98;100;95392.81;;;;
2022/01/07 02:34:16;;;;;;;4.65;2.75;;;;;;;-3.98;100;95392.81;;;;
2022/01/07 02:35:16;;;;;;;4.65;2.75;;;;;;;-3.98;100;95392.81;;;;
2022/01/07 02:36:19;;;;;;;4.65;2.75;;;;;;;-3.98;100;95392.81;;;;
2022/01/07 02:37:20;;;;;;;4.65;2.75;;;;;;;-3.98;100;95392.81;;;;
2022/01/07 02:38:20;;;;;;;4.65;2.75;;;;;;;-3.98;100;95392.81;;;;
2022/01/07 02:39:21;;;;;;;4.95;2.65;;;;;;;-4.03;100;95389.34;;;;
2022/01/07 02:40:21;;;;;;;4.95;2.65;;;;;;;-4.03;100;95389.34;;;;
2022/01/07 02:41:23;;;;;;;4.95;2.65;;;;;;;-4.03;100;95389.34;;;;
2022/01/07 02:42:25;;;;;;;4.95;2.65;;;;;;;-4.03;100;95389.34;;;;
2022/01/07 02:43:25;;;;;;;4.95;2.65;;;;;;;-4.03;100;95389.34;;;;
2022/01/07 02:44:27;;;;;;;4.95;2.65;;;;;;;-4.03;100;95389.34;;;;
2022/01/07 02:45:27;;;;;;;4.95;2.65;;;;;;;-4.03;100;95389.34;;;;
2022/01/07 02:46:28;;;;;;;4.95;2.65;;;;;;;-4.03;100;95389.34;;;;
2022/01/07 02:47:35;;;;;;;4.95;2.65;;;;;;;-4.03;100;95389.34;;;;
2022/01/07 02:48:35;;;;;;;4.95;2.65;;;;;;;-4.03;100;95389.34;;;;
2022/01/07 02:49:36;;;;;;;4.65;2.45;;;;;;;-4.16;100;95378.74;;;;
2022/01/07 02:50:36;;;;;;;4.65;2.45;;;;;;;-4.16;100;95378.74;;;;
2022/01/07 02:51:38;;;;;;;4.65;2.45;;;;;;;-4.16;100;95378.74;;;;
2022/01/07 02:52:39;;;;;;;4.65;2.45;;;;;;;-4.16;100;95378.74;;;;
2022/01/07 02:53:39;;;;;;;4.65;2.45;;;;;;;-4.16;100;95378.74;;;;
2022/01/07 02:54:40;;;;;;;4.65;2.45;;;;;;;-4.16;100;95378.74;;;;
2022/01/07 02:55:41;;;;;;;4.65;2.45;;;;;;;-4.16;100;95378.74;;;;
2022/01/07 02:56:41;;;;;;;4.65;2.45;;;;;;;-4.16;100;95378.74;;;;
2022/01/07 02:57:42;;;;;;;4.65;2.45;;;;;;;-4.16;100;95378.74;;;;
2022/01/07 02:58:42;;;;;;;4.65;2.45;;;;;;;-4.16;100;95378.74;;;;
2022/01/07 02:59:43;;;;;;;4.65;2.45;;;;;;;-4.16;100;95378.74;;;;
2022/01/07 03:00:43;;;;;;;4.8;2.45;;;;;;;-4.33;100;95375.52;;;;
2022/01/07 03:01:44;;;;;;;4.8;2.45;;;;;;;-4.33;100;95375.52;;;;
2022/01/07 03:02:45;;;;;;;4.8;2.45;;;;;;;-4.33;100;95375.52;;;;
2022/01/07 03:03:47;;;;;;;4.8;2.45;;;;;;;-4.33;100;95375.52;;;;
2022/01/07 03:04:48;;;;;;;4.8;2.45;;;;;;;-4.33;100;95375.52;;;;
2022/01/07 03:05:48;;;;;;;4.8;2.45;;;;;;;-4.33;100;95375.52;;;;
2022/01/07 03:06:49;;;;;;;4.8;2.45;;;;;;;-4.33;100;95375.52;;;;
2022/01/07 03:07:50;;;;;;;4.8;2.45;;;;;;;-4.33;100;95375.52;;;;
2022/01/07 03:08:51;;;;;;;4.8;2.45;;;;;;;-4.33;100;95375.52;;;;
2022/01/07 03:09:52;;;;;;;4.8;2.45;;;;;;;-4.33;100;95375.52;;;;
2022/01/07 03:10:53;;;;;;;3.699999;2.3;;;;;;;-4.51;100;95383.83;;;;
2022/01/07 03:11:54;;;;;;;3.699999;2.3;;;;;;;-4.51;100;95383.83;;;;
2022/01/07 03:12:55;;;;;;;3.699999;2.3;;;;;;;-4.51;100;95383.83;;;;
2022/01/07 03:13:56;;;;;;;3.699999;2.3;;;;;;;-4.51;100;95383.83;;;;
2022/01/07 03:14:57;;;;;;;3.699999;2.3;;;;;;;-4.51;100;95383.83;;;;
2022/01/07 03:15:57;;;;;;;3.699999;2.3;;;;;;;-4.51;100;95383.83;;;;
2022/01/07 03:16:58;;;;;;;3.699999;2.3;;;;;;;-4.51;100;95383.83;;;;
2022/01/07 03:17:58;;;;;;;3.699999;2.3;;;;;;;-4.51;100;95383.83;;;;
2022/01/07 03:18:59;;;;;;;3.699999;2.3;;;;;;;-4.51;100;95383.83;;;;
2022/01/07 03:20:00;;;;;;;3.699999;2.3;;;;;;;-4.51;100;95383.83;;;;
2022/01/07 03:21:00;;;;;;;3.699999;2.3;;;;;;;-4.51;100;95383.83;;;;
2022/01/07 03:22:01;;;;;;;3.5;1.95;;;;;;;-4.67;100;95365.15;;;;
2022/01/07 03:23:02;;;;;;;3.5;1.95;;;;;;;-4.67;100;95365.15;;;;
2022/01/07 03:24:02;;;;;;;3.5;1.95;;;;;;;-4.67;100;95365.15;;;;
2022/01/07 03:25:03;;;;;;;3.5;1.95;;;;;;;-4.67;100;95365.15;;;;
2022/01/07 03:26:05;;;;;;;3.5;1.95;;;;;;;-4.67;100;95365.15;;;;
2022/01/07 03:27:06;;;;;;;3.5;1.95;;;;;;;-4.67;100;95365.15;;;;
2022/01/07 03:28:08;;;;;;;3.5;1.95;;;;;;;-4.67;100;95365.15;;;;
2022/01/07 03:29:09;;;;;;;3.5;1.95;;;;;;;-4.67;100;95365.15;;;;
2022/01/07 03:30:10;;;;;;;3.5;1.95;;;;;;;-4.67;100;95365.15;;;;
2022/01/07 03:31:14;;;;;;;3.5;1.95;;;;;;;-4.67;100;95365.15;;;;
2022/01/07 03:32:15;;;;;;;3.4;2.5;;;;;;;-4.82;100;95359.49;;;;
2022/01/07 03:33:15;;;;;;;3.4;2.5;;;;;;;-4.82;100;95359.49;;;;
2022/01/07 03:34:16;;;;;;;3.4;2.5;;;;;;;-4.82;100;95359.49;;;;
2022/01/07 03:35:17;;;;;;;3.4;2.5;;;;;;;-4.82;100;95359.49;;;;
2022/01/07 03:36:17;;;;;;;3.4;2.5;;;;;;;-4.82;100;95359.49;;;;
2022/01/07 03:37:18;;;;;;;3.4;2.5;;;;;;;-4.82;100;95359.49;;;;
2022/01/07 03:38:19;;;;;;;3.4;2.5;;;;;;;-4.82;100;95359.49;;;;
2022/01/07 03:39:20;;;;;;;3.4;2.5;;;;;;;-4.82;100;95359.49;;;;
2022/01/07 03:40:21;;;;;;;3.4;2.5;;;;;;;-4.82;100;95359.49;;;;
2022/01/07 03:41:21;;;;;;;3.4;2.5;;;;;;;-4.82;100;95359.49;;;;
2022/01/07 03:42:22;;;;;;;3.4;2.5;;;;;;;-4.82;100;95359.49;;;;
2022/01/07 03:43:22;;;;;;;3.55;2.3;;;;;;;-4.94;100;95344.42;;;;
2022/01/07 03:44:23;;;;;;;3.55;2.3;;;;;;;-4.94;100;95344.42;;;;
2022/01/07 03:45:24;;;;;;;3.55;2.3;;;;;;;-4.94;100;95344.42;;;;
2022/01/07 03:46:24;;;;;;;3.55;2.3;;;;;;;-4.94;100;95344.42;;;;
2022/01/07 03:47:25;;;;;;;3.55;2.3;;;;;;;-4.94;100;95344.42;;;;
2022/01/07 03:48:27;;;;;;;3.55;2.3;;;;;;;-4.94;100;95344.42;;;;
2022/01/07 03:49:27;;;;;;;3.55;2.3;;;;;;;-4.94;100;95344.42;;;;
2022/01/07 03:50:28;;;;;;;3.55;2.3;;;;;;;-4.94;100;95344.42;;;;
2022/01/07 03:51:29;;;;;;;3.55;2.3;;;;;;;-4.94;100;95344.42;;;;
2022/01/07 03:52:30;;;;;;;3.55;2.3;;;;;;;-4.94;100;95344.42;;;;
2022/01/07 03:53:30;;;;;;;3.05;2.4;;;;;;;-4.97;100;95331.13;;;;
2022/01/07 03:54:31;;;;;;;3.05;2.4;;;;;;;-4.97;100;95331.13;;;;
2022/01/07 03:55:31;;;;;;;3.05;2.4;;;;;;;-4.97;100;95331.13;;;;
2022/01/07 03:56:33;;;;;;;3.05;2.4;;;;;;;-4.97;100;95331.13;;;;
2022/01/07 03:57:34;;;;;;;3.05;2.4;;;;;;;-4.97;100;95331.13;;;;
2022/01/07 03:58:35;;;;;;;3.05;2.4;;;;;;;-4.97;100;95331.13;;;;
2022/01/07 03:59:35;;;;;;;3.05;2.4;;;;;;;-4.97;100;95331.13;;;;
2022/01/07 04:00:36;;;;;;;3.05;2.4;;;;;;;-4.97;100;95331.13;;;;
2022/01/07 04:01:39;;;;;;;3.05;2.4;;;;;;;-4.97;100;95331.13;;;;
2022/01/07 04:02:39;;;;;;;3.05;2.4;;;;;;;-4.97;100;95331.13;;;;
2022/01/07 04:03:40;;;;;;;3.05;2.4;;;;;;;-4.97;100;95331.13;;;;
2022/01/07 04:04:41;;;;;;;3;2.3;;;;;;;-5.08;100;95339.59;;;;
2022/01/07 04:05:41;;;;;;;3;2.3;;;;;;;-5.08;100;95339.59;;;;
2022/01/07 04:06:42;;;;;;;3;2.3;;;;;;;-5.08;100;95339.59;;;;
2022/01/07 04:07:43;;;;;;;3;2.3;;;;;;;-5.08;100;95339.59;;;;
2022/01/07 04:08:43;;;;;;;3;2.3;;;;;;;-5.08;100;95339.59;;;;
2022/01/07 04:09:44;;;;;;;3;2.3;;;;;;;-5.08;100;95339.59;;;;
2022/01/07 04:10:44;;;;;;;3;2.3;;;;;;;-5.08;100;95339.59;;;;
2022/01/07 04:11:45;;;;;;;3;2.3;;;;;;;-5.08;100;95339.59;;;;
2022/01/07 04:12:45;;;;;;;3;2.3;;;;;;;-5.08;100;95339.59;;;;
2022/01/07 04:13:46;;;;;;;3;2.3;;;;;;;-5.08;100;95339.59;;;;
2022/01/07 04:14:50;;;;;;;3.65;2.45;;;;;;;-5.2;100;95359.14;;;;
2022/01/07 04:15:51;;;;;;;3.65;2.45;;;;;;;-5.2;100;95359.14;;;;
2022/01/07 04:16:51;;;;;;;3.65;2.45;;;;;;;-5.2;100;95359.14;;;;
2022/01/07 04:17:52;;;;;;;3.65;2.45;;;;;;;-5.2;100;95359.14;;;;
2022/01/07 04:18:54;;;;;;;3.65;2.45;;;;;;;-5.2;100;95359.14;;;;
2022/01/07 04:19:55;;;;;;;3.65;2.45;;;;;;;-5.2;100;95359.14;;;;
2022/01/07 04:20:55;;;;;;;3.65;2.45;;;;;;;-5.2;100;95359.14;;;;
2022/01/07 04:21:56;;;;;;;3.65;2.45;;;;;;;-5.2;100;95359.14;;;;
2022/01/07 04:22:56;;;;;;;3.65;2.45;;;;;;;-5.2;100;95359.14;;;;
2022/01/07 04:23:57;;;;;;;3.65;2.45;;;;;;;-5.2;100;95359.14;;;;
2022/01/07 04:24:57;;;;;;;3.65;2.45;;;;;;;-5.2;100;95359.14;;;;
2022/01/07 04:25:58;;;;;;;3.05;2.2;;;;;;;-5.26;100;95355.74;;;;
2022/01/07 04:26:58;;;;;;;3.05;2.2;;;;;;;-5.26;100;95355.74;;;;
2022/01/07 04:27:59;;;;;;;3.05;2.2;;;;;;;-5.26;100;95355.74;;;;
2022/01/07 04:29:04;;;;;;;3.05;2.2;;;;;;;-5.26;100;95355.74;;;;
2022/01/07 04:30:04;;;;;;;3.05;2.2;;;;;;;-5.26;100;95355.74;;;;
2022/01/07 04:31:07;;;;;;;3.05;2.2;;;;;;;-5.26;100;95355.74;;;;
2022/01/07 04:32:09;;;;;;;3.05;2.2;;;;;;;-5.26;100;95355.74;;;;
2022/01/07 04:33:11;;;;;;;3.05;2.2;;;;;;;-5.26;100;95355.74;;;;
2022/01/07 04:34:13;;;;;;;3.05;2.2;;;;;;;-5.26;100;95355.74;;;;
2022/01/07 04:35:14;;;;;;;3.05;2.2;;;;;;;-5.26;100;95355.74;;;;
2022/01/07 04:36:17;;;;;;;4.7;2.3;;;;;;;-5.35;100;95349.52;;;;
2022/01/07 04:37:18;;;;;;;4.7;2.3;;;;;;;-5.35;100;95349.52;;;;
2022/01/07 04:38:19;;;;;;;4.7;2.3;;;;;;;-5.35;100;95349.52;;;;
2022/01/07 04:39:20;;;;;;;4.7;2.3;;;;;;;-5.35;100;95349.52;;;;
2022/01/07 04:40:21;;;;;;;4.7;2.3;;;;;;;-5.35;100;95349.52;;;;
2022/01/07 04:41:22;;;;;;;4.7;2.3;;;;;;;-5.35;100;95349.52;;;;
2022/01/07 04:42:23;;;;;;;4.7;2.3;;;;;;;-5.35;100;95349.52;;;;
2022/01/07 04:43:23;;;;;;;4.7;2.3;;;;;;;-5.35;100;95349.52;;;;
2022/01/07 04:44:24;;;;;;;4.7;2.3;;;;;;;-5.35;100;95349.52;;;;
2022/01/07 04:45:24;;;;;;;4.7;2.3;;;;;;;-5.35;100;95349.52;;;;
2022/01/07 04:46:25;;;;;;;4.7;2.3;;;;;;;-5.35;100;95349.52;;;;
2022/01/07 04:47:25;;;;;;;3.95;2.4;;;;;;;-5.5;100;95360.14;;;;
2022/01/07 04:48:26;;;;;;;3.95;2.4;;;;;;;-5.5;100;95360.14;;;;
2022/01/07 04:49:26;;;;;;;3.95;2.4;;;;;;;-5.5;100;95360.14;;;;
2022/01/07 04:50:27;;;;;;;3.95;2.4;;;;;;;-5.5;100;95360.14;;;;
2022/01/07 04:51:29;;;;;;;3.95;2.4;;;;;;;-5.5;100;95360.14;;;;
2022/01/07 04:52:30;;;;;;;3.95;2.4;;;;;;;-5.5;100;95360.14;;;;
2022/01/07 04:53:30;;;;;;;3.95;2.4;;;;;;;-5.5;100;95360.14;;;;
2022/01/07 04:54:31;;;;;;;3.95;2.4;;;;;;;-5.5;100;95360.14;;;;
2022/01/07 04:55:37;;;;;;;3.95;2.4;;;;;;;-5.5;100;95360.14;;;;
2022/01/07 04:56:38;;;;;;;3.95;2.4;;;;;;;-5.5;100;95360.14;;;;
2022/01/07 04:57:38;;;;;;;3.35;2.2;;;;;;;-5.66;100;95355.85;;;;
2022/01/07 04:58:39;;;;;;;3.35;2.2;;;;;;;-5.66;100;95355.85;;;;
2022/01/07 04:59:39;;;;;;;3.35;2.2;;;;;;;-5.66;100;95355.85;;;;
2022/01/07 05:00:40;;;;;;;3.35;2.2;;;;;;;-5.66;100;95355.85;;;;
2022/01/07 05:01:43;;;;;;;3.35;2.2;;;;;;;-5.66;100;95355.85;;;;
2022/01/07 05:02:43;;;;;;;3.35;2.2;;;;;;;-5.66;100;95355.85;;;;
2022/01/07 05:03:44;;;;;;;3.35;2.2;;;;;;;-5.66;100;95355.85;;;;
2022/01/07 05:04:44;;;;;;;3.35;2.2;;;;;;;-5.66;100;95355.85;;;;
2022/01/07 05:05:49;;;;;;;3.35;2.2;;;;;;;-5.66;100;95355.85;;;;
2022/01/07 05:06:49;;;;;;;3.35;2.2;;;;;;;-5.66;100;95355.85;;;;
2022/01/07 05:07:50;;;;;;;3.35;2.2;;;;;;;-5.66;100;95355.85;;;;
2022/01/07 05:08:50;;;;;;;3.1;2.2;;;;;;;-5.76;100;95359.01;;;;
2022/01/07 05:09:51;;;;;;;3.1;2.2;;;;;;;-5.76;100;95359.01;;;;
2022/01/07 05:10:52;;;;;;;3.1;2.2;;;;;;;-5.76;100;95359.01;;;;
2022/01/07 05:11:52;;;;;;;3.1;2.2;;;;;;;-5.76;100;95359.01;;;;
2022/01/07 05:12:53;;;;;;;3.1;2.2;;;;;;;-5.76;100;95359.01;;;;
2022/01/07 05:13:53;;;;;;;3.1;2.2;;;;;;;-5.76;100;95359.01;;;;
2022/01/07 05:14:54;;;;;;;3.1;2.2;;;;;;;-5.76;100;95359.01;;;;
2022/01/07 05:15:54;;;;;;;3.1;2.2;;;;;;;-5.76;100;95359.01;;;;
2022/01/07 05:16:56;;;;;;;3.1;2.2;;;;;;;-5.76;100;95359.01;;;;
2022/01/07 05:17:56;;;;;;;3.1;2.2;;;;;;;-5.76;100;95359.01;;;;
2022/01/07 05:18:57;;;;;;;3.4;2.2;;;;;;;-5.88;100;95363.58;;;;
2022/01/07 05:19:58;;;;;;;3.4;2.2;;;;;;;-5.88;100;95363.58;;;;
2022/01/07 05:20:58;;;;;;;3.4;2.2;;;;;;;-5.88;100;95363.58;;;;
2022/01/07 05:21:59;;;;;;;3.4;2.2;;;;;;;-5.88;100;95363.58;;;;
2022/01/07 05:22:59;;;;;;;3.4;2.2;;;;;;;-5.88;100;95363.58;;;;
2022/01/07 05:24:00;;;;;;;3.4;2.2;;;;;;;-5.88;100;95363.58;;;;
2022/01/07 05:25:01;;;;;;;3.4;2.2;;;;;;;-5.88;100;95363.58;;;;
2022/01/07 05:26:04;;;;;;;3.4;2.2;;;;;;;-5.88;100;95363.58;;;;
2022/01/07 05:27:05;;;;;;;3.4;2.2;;;;;;;-5.88;100;95363.58;;;;
2022/01/07 05:28:05;;;;;;;3.4;2.2;;;;;;;-5.88;100;95363.58;;;;
2022/01/07 05:29:06;;;;;;;3.4;2.2;;;;;;;-5.88;100;95363.58;;;;
2022/01/07 05:30:06;;;;;;;2.7;2.05;;;;;;;-5.96;100;95362.55;;;;
2022/01/07 05:31:10;;;;;;;2.7;2.05;;;;;;;-5.96;100;95362.55;;;;
2022/01/07 05:32:10;;;;;;;2.7;2.05;;;;;;;-5.96;100;95362.55;;;;
2022/01/07 05:33:11;;;;;;;2.7;2.05;;;;;;;-5.96;100;95362.55;;;;
2022/01/07 05:34:11;;;;;;;2.7;2.05;;;;;;;-5.96;100;95362.55;;;;
2022/01/07 05:35:12;;;;;;;2.7;2.05;;;;;;;-5.96;100;95362.55;;;;
2022/01/07 05:36:13;;;;;;;2.7;2.05;;;;;;;-5.96;100;95362.55;;;;
2022/01/07 05:37:13;;;;;;;2.7;2.05;;;;;;;-5.96;100;95362.55;;;;
2022/01/07 05:38:14;;;;;;;2.7;2.05;;;;;;;-5.96;100;95362.55;;;;
2022/01/07 05:39:15;;;;;;;2.7;2.05;;;;;;;-5.96;100;95362.55;;;;
2022/01/07 05:40:16;;;;;;;3.35;2.2;;;;;;;-6.04;100;95361.47;;;;
2022/01/07 05:41:16;;;;;;;3.35;2.2;;;;;;;-6.04;100;95361.47;;;;
2022/01/07 05:42:18;;;;;;;3.35;2.2;;;;;;;-6.04;100;95361.47;;;;
2022/01/07 05:43:18;;;;;;;3.35;2.2;;;;;;;-6.04;100;95361.47;;;;
2022/01/07 05:44:19;;;;;;;3.35;2.2;;;;;;;-6.04;100;95361.47;;;;
2022/01/07 05:45:19;;;;;;;3.35;2.2;;;;;;;-6.04;100;95361.47;;;;
2022/01/07 05:46:20;;;;;;;3.35;2.2;;;;;;;-6.04;100;95361.47;;;;
2022/01/07 05:47:21;;;;;;;3.35;2.2;;;;;;;-6.04;100;95361.47;;;;
2022/01/07 05:48:21;;;;;;;3.35;2.2;;;;;;;-6.04;100;95361.47;;;;
2022/01/07 05:49:22;;;;;;;3.35;2.2;;;;;;;-6.04;100;95361.47;;;;
2022/01/07 05:50:22;;;;;;;3.35;2.2;;;;;;;-6.04;100;95361.47;;;;
2022/01/07 05:51:23;;;;;;;4.55;2.2;;;;;;;-6.1;100;95366.87;;;;
2022/01/07 05:52:23;;;;;;;4.55;2.2;;;;;;;-6.1;100;95366.87;;;;
2022/01/07 05:53:24;;;;;;;4.55;2.2;;;;;;;-6.1;100;95366.87;;;;
2022/01/07 05:54:24;;;;;;;4.55;2.2;;;;;;;-6.1;100;95366.87;;;;
2022/01/07 05:55:25;;;;;;;4.55;2.2;;;;;;;-6.1;100;95366.87;;;;
2022/01/07 05:56:26;;;;;;;4.55;2.2;;;;;;;-6.1;100;95366.87;;;;
2022/01/07 05:57:27;;;;;;;4.55;2.2;;;;;;;-6.1;100;95366.87;;;;
2022/01/07 05:58:28;;;;;;;4.55;2.2;;;;;;;-6.1;100;95366.87;;;;
2022/01/07 05:59:28;;;;;;;4.55;2.2;;;;;;;-6.1;100;95366.87;;;;
2022/01/07 06:00:29;;;;;;;4.55;2.2;;;;;;;-6.1;100;95366.87;;;;
2022/01/07 06:01:30;;;;;;;3.449999;2.35;;;;;;;-6.14;100;95365.88;;;;
2022/01/07 06:02:31;;;;;;;3.449999;2.35;;;;;;;-6.14;100;95365.88;;;;
2022/01/07 06:03:32;;;;;;;3.449999;2.35;;;;;;;-6.14;100;95365.88;;;;
2022/01/07 06:04:33;;;;;;;3.449999;2.35;;;;;;;-6.14;100;95365.88;;;;
2022/01/07 06:05:33;;;;;;;3.449999;2.35;;;;;;;-6.14;100;95365.88;;;;
2022/01/07 06:06:34;;;;;;;3.449999;2.35;;;;;;;-6.14;100;95365.88;;;;
2022/01/07 06:07:34;;;;;;;3.449999;2.35;;;;;;;-6.14;100;95365.88;;;;
2022/01/07 06:08:35;;;;;;;3.449999;2.35;;;;;;;-6.14;100;95365.88;;;;
2022/01/07 06:09:36;;;;;;;3.449999;2.35;;;;;;;-6.14;100;95365.88;;;;